Time;durP1;ratioP1;P1;durP2;ratioP2;P2;SDS_P1;SDS_P2;PMS_P1;PMS_P2;Temp;Humidity;BMP_temperature;BMP_pressure;BME280_temperature;BME280_humidity;BME280_pressure;Samples;Min_cycle;Max_cycle;Signal;HPM_P1;HPM_P2
2020/12/31 00:00:56;;;;;;;23.52;12.60;;;;;;;-0.61;83.79;100160.03;5054166;28;20037;-51
2020/12/31 00:03:22;;;;;;;19.02;10.80;;;;;;;-0.61;83.86;100170.91;5052592;28;20045;-54
2020/12/31 00:05:49;;;;;;;17.90;10.60;;;;;;;-0.59;84.02;100169.81;5052815;28;20098;-54
2020/12/31 00:08:15;;;;;;;24.92;12.25;;;;;;;-0.61;83.84;100173.63;5033491;28;20041;-60
2020/12/31 00:10:42;;;;;;;20.63;12.20;;;;;;;-0.64;83.84;100171.47;5017781;28;20493;-54
2020/12/31 00:13:08;;;;;;;19.88;11.98;;;;;;;-0.66;83.92;100168.22;5059368;28;20068;-52
2020/12/31 00:15:37;;;;;;;20.65;11.98;;;;;;;-0.67;83.59;100160.38;5073130;28;20044;-53
2020/12/31 00:18:04;;;;;;;26.13;13.40;;;;;;;-0.68;83.61;100165.00;5073619;28;20036;-53
2020/12/31 00:20:30;;;;;;;31.38;16.60;;;;;;;-0.71;83.71;100165.56;5072286;28;20102;-55
2020/12/31 00:22:56;;;;;;;28.80;13.05;;;;;;;-0.73;83.68;100165.03;5074400;28;20044;-53
2020/12/31 00:25:26;;;;;;;25.02;12.32;;;;;;;-0.75;83.64;100164.53;5071766;28;20062;-54
2020/12/31 00:27:53;;;;;;;22.48;13.75;;;;;;;-0.76;83.66;100160.16;5069704;28;20045;-56
2020/12/31 00:30:20;;;;;;;24.63;12.18;;;;;;;-0.77;83.61;100160.47;5054962;28;20375;-57
2020/12/31 00:32:49;;;;;;;16.27;8.73;;;;;;;-0.79;83.75;100170.78;5054516;28;20041;-53
2020/12/31 00:35:18;;;;;;;18.05;9.25;;;;;;;-0.84;84.26;100166.22;5056075;28;20067;-52
2020/12/31 00:37:44;;;;;;;18.35;9.15;;;;;;;-0.82;84.16;100169.44;5068124;28;20041;-53
2020/12/31 00:40:10;;;;;;;17.00;9.95;;;;;;;-0.78;84.00;100169.69;5069569;28;20040;-54
2020/12/31 00:42:37;;;;;;;16.23;9.15;;;;;;;-0.81;83.87;100168.38;5036414;28;20044;-54
2020/12/31 00:45:04;;;;;;;15.77;9.63;;;;;;;-0.81;83.79;100159.41;5054828;28;20036;-51
2020/12/31 00:47:30;;;;;;;19.88;9.90;;;;;;;-0.84;83.89;100155.34;5055757;28;20123;-55
2020/12/31 00:49:58;;;;;;;18.65;11.10;;;;;;;-0.84;83.79;100149.91;5071547;28;20052;-55
2020/12/31 00:52:24;;;;;;;21.42;11.77;;;;;;;-0.88;83.95;100148.88;5074190;28;20040;-55
2020/12/31 00:54:56;;;;;;;14.15;8.30;;;;;;;-0.89;83.96;100158.09;5061753;28;20071;-55
2020/12/31 00:57:22;;;;;;;19.17;11.18;;;;;;;-0.89;83.82;100152.66;5074479;28;20110;-53
2020/12/31 00:59:49;;;;;;;22.55;10.95;;;;;;;-0.93;84.01;100146.19;5074913;28;20032;-55
2020/12/31 01:02:15;;;;;;;14.43;9.77;;;;;;;-0.96;83.94;100141.31;5074061;28;20071;-53
2020/12/31 01:04:44;;;;;;;17.67;9.38;;;;;;;-0.99;84.16;100151.94;5074567;28;20072;-54
2020/12/31 01:07:17;;;;;;;15.65;7.50;;;;;;;-1.01;84.50;100144.09;5064285;28;20079;-52
2020/12/31 01:09:46;;;;;;;18.48;9.63;;;;;;;-0.99;84.58;100141.88;5072142;28;20041;-54
2020/12/31 01:12:12;;;;;;;17.83;8.15;;;;;;;-0.98;84.71;100140.00;5056244;28;20094;-54
2020/12/31 01:14:39;;;;;;;18.02;8.27;;;;;;;-0.98;84.94;100146.22;5074423;28;20506;-56
2020/12/31 01:17:05;;;;;;;12.65;7.50;;;;;;;-0.96;84.57;100146.75;5074478;28;20057;-54
2020/12/31 01:19:32;;;;;;;17.67;7.55;;;;;;;-0.95;84.28;100150.25;5056443;28;20051;-53
2020/12/31 01:21:58;;;;;;;16.85;7.47;;;;;;;-0.96;84.62;100146.75;5073818;28;20075;-54
2020/12/31 01:24:24;;;;;;;12.75;7.80;;;;;;;-0.96;84.66;100148.66;5055489;28;20079;-55
2020/12/31 01:26:50;;;;;;;18.13;7.95;;;;;;;-0.97;84.68;100155.19;5055296;28;20130;-53
2020/12/31 01:29:17;;;;;;;8.40;5.63;;;;;;;-0.99;84.76;100141.88;5055096;28;20551;-53
2020/12/31 01:31:47;;;;;;;14.63;7.47;;;;;;;-0.99;84.93;100143.78;5073600;28;20074;-56
2020/12/31 01:34:13;;;;;;;10.77;6.60;;;;;;;-0.98;84.66;100148.94;5074483;28;20048;-55
2020/12/31 01:36:40;;;;;;;11.05;7.05;;;;;;;-1.00;84.89;100150.31;5072543;28;20501;-56
2020/12/31 01:39:07;;;;;;;17.13;7.95;;;;;;;-0.99;84.92;100146.50;5073159;28;20123;-53
2020/12/31 01:41:33;;;;;;;12.63;6.93;;;;;;;-0.98;84.59;100153.56;5038670;28;20402;-54
2020/12/31 01:44:11;;;;;;;11.70;7.53;;;;;;;-1.00;84.75;100156.56;5073134;28;20079;-56
2020/12/31 01:46:42;;;;;;;14.10;7.50;;;;;;;-1.00;84.57;100142.97;5072277;28;20060;-56
2020/12/31 01:49:09;;;;;;;14.77;7.75;;;;;;;-1.00;84.46;100142.97;5073159;28;20068;-54
2020/12/31 01:51:36;;;;;;;17.52;7.00;;;;;;;-1.04;84.98;100147.38;5073279;28;20036;-54
2020/12/31 01:54:04;;;;;;;12.68;7.63;;;;;;;-1.04;84.85;100150.09;5073207;28;20036;-56
2020/12/31 01:56:34;;;;;;;15.52;7.25;;;;;;;-1.03;84.77;100146.25;5055702;28;20137;-55
2020/12/31 01:59:03;;;;;;;12.18;6.80;;;;;;;-1.04;85.05;100144.66;5072520;28;20044;-55
2020/12/31 02:01:29;;;;;;;14.60;6.85;;;;;;;-1.04;84.74;100132.97;5052106;28;20045;-55
2020/12/31 02:03:59;;;;;;;12.27;6.57;;;;;;;-1.02;85.00;100142.44;5068979;28;20040;-55
2020/12/31 02:06:30;;;;;;;13.23;7.05;;;;;;;-1.01;85.07;100143.28;5055742;28;20045;-52
2020/12/31 02:08:57;;;;;;;12.95;7.05;;;;;;;-1.01;84.91;100138.66;5071283;28;20072;-55
2020/12/31 02:11:24;;;;;;;14.80;7.30;;;;;;;-1.03;85.12;100157.13;5072993;28;20036;-54
2020/12/31 02:13:53;;;;;;;11.65;6.80;;;;;;;-1.06;85.29;100157.69;5051352;28;20055;-56
2020/12/31 02:16:28;;;;;;;14.27;8.07;;;;;;;-1.06;84.99;100157.69;5055461;28;20131;-55
2020/12/31 02:18:54;;;;;;;13.23;6.78;;;;;;;-1.08;85.21;100151.72;5073263;28;20098;-55
2020/12/31 02:21:25;;;;;;;9.93;7.22;;;;;;;-1.11;85.04;100155.00;5054196;28;20044;-54
2020/12/31 02:23:52;;;;;;;12.48;7.35;;;;;;;-1.12;84.92;100145.25;5073244;28;20094;-56
2020/12/31 02:26:21;;;;;;;11.75;6.57;;;;;;;-1.13;85.20;100145.50;5072447;28;20048;-55
2020/12/31 02:28:48;;;;;;;12.45;8.00;;;;;;;-1.15;85.13;100153.13;5072115;28;20047;-56
2020/12/31 02:31:15;;;;;;;11.27;6.60;;;;;;;-1.16;85.16;100144.19;5070038;28;20566;-56
2020/12/31 02:33:49;;;;;;;14.45;6.90;;;;;;;-1.16;85.17;100135.22;5060875;28;20091;-52
2020/12/31 02:36:17;;;;;;;13.20;7.40;;;;;;;-1.15;85.10;100142.28;5063472;28;20043;-57
2020/12/31 02:38:44;;;;;;;10.88;6.70;;;;;;;-1.15;85.17;100150.44;5073161;28;20128;-55
2020/12/31 02:41:11;;;;;;;12.35;7.00;;;;;;;-1.18;84.88;100138.22;5072355;28;20041;-56
2020/12/31 02:43:38;;;;;;;11.18;6.82;;;;;;;-1.18;85.08;100142.84;5072371;28;20071;-56
2020/12/31 02:46:06;;;;;;;9.70;5.78;;;;;;;-1.19;84.74;100138.53;5072070;28;20071;-52
2020/12/31 02:48:33;;;;;;;14.88;6.93;;;;;;;-1.21;84.93;100141.50;5072393;28;20044;-51
2020/12/31 02:51:03;;;;;;;9.98;7.10;;;;;;;-1.22;85.05;100148.03;5038313;28;20473;-53
2020/12/31 02:53:29;;;;;;;12.07;6.93;;;;;;;-1.24;85.11;100151.03;5071631;28;20036;-53
2020/12/31 02:55:56;;;;;;;12.95;6.30;;;;;;;-1.23;84.78;100151.84;5072255;28;20072;-53
2020/12/31 02:58:22;;;;;;;11.30;6.82;;;;;;;-1.26;85.05;100157.84;5072221;28;20068;-54
2020/12/31 03:00:49;;;;;;;10.65;6.45;;;;;;;-1.27;84.79;100153.47;5054719;28;20094;-51
2020/12/31 03:03:16;;;;;;;9.68;6.10;;;;;;;-1.30;85.14;100152.13;5072448;28;20553;-56
2020/12/31 03:05:43;;;;;;;11.30;6.30;;;;;;;-1.29;85.06;100147.53;5072957;28;20052;-53
2020/12/31 03:08:10;;;;;;;11.20;5.97;;;;;;;-1.28;85.03;100154.59;5054175;28;20517;-54
2020/12/31 03:10:36;;;;;;;11.90;5.82;;;;;;;-1.31;85.15;100152.44;5072111;28;20103;-55
2020/12/31 03:13:03;;;;;;;9.25;6.00;;;;;;;-1.35;85.48;100143.25;5076295;28;20445;-55
2020/12/31 03:15:32;;;;;;;12.50;6.10;;;;;;;-1.37;85.31;100146.22;5076184;28;20090;-53
2020/12/31 03:17:58;;;;;;;11.23;6.68;;;;;;;-1.36;85.20;100147.03;5076075;28;20094;-53
2020/12/31 03:20:27;;;;;;;11.00;6.30;;;;;;;-1.38;85.48;100150.00;5076126;28;20537;-52
2020/12/31 03:22:53;;;;;;;12.90;5.70;;;;;;;-1.37;85.38;100143.50;5059068;28;20111;-54
2020/12/31 03:25:19;;;;;;;12.75;6.45;;;;;;;-1.38;85.54;100149.22;5074938;28;20044;-56
2020/12/31 03:27:45;;;;;;;12.57;7.65;;;;;;;-1.39;85.42;100147.59;5074192;28;20079;-54
2020/12/31 03:30:12;;;;;;;11.70;6.68;;;;;;;-1.39;85.28;100144.88;5075440;28;20072;-54
2020/12/31 03:32:38;;;;;;;12.45;6.53;;;;;;;-1.38;85.49;100143.81;5059046;28;20114;-53
2020/12/31 03:35:07;;;;;;;16.02;5.70;;;;;;;-1.38;85.33;100143.81;5075939;28;20405;-53
2020/12/31 03:37:34;;;;;;;10.15;6.57;;;;;;;-1.39;85.50;100134.84;5074520;28;20075;-51
2020/12/31 03:40:00;;;;;;;13.98;6.43;;;;;;;-1.38;85.63;100143.81;5075434;28;20064;-55
2020/12/31 03:42:26;;;;;;;9.48;5.88;;;;;;;-1.42;85.85;100132.69;5075450;28;20446;-53
2020/12/31 03:44:52;;;;;;;10.65;6.53;;;;;;;-1.41;85.69;100133.50;5076256;28;20086;-52
2020/12/31 03:47:22;;;;;;;11.13;6.53;;;;;;;-1.42;85.56;100127.25;5076022;28;20044;-53
2020/12/31 03:49:50;;;;;;;11.88;6.32;;;;;;;-1.41;85.79;100134.31;5074726;28;20055;-54
2020/12/31 03:52:16;;;;;;;10.50;6.18;;;;;;;-1.45;85.81;100135.13;5057957;28;20061;-56
2020/12/31 03:54:42;;;;;;;10.90;7.10;;;;;;;-1.46;85.63;100128.09;5075696;28;20060;-56
2020/12/31 03:57:08;;;;;;;25.08;7.90;;;;;;;-1.45;85.45;100127.00;5057426;28;20086;-52
2020/12/31 03:59:35;;;;;;;13.10;6.90;;;;;;;-1.47;85.35;100126.47;5074992;28;20060;-52
2020/12/31 04:02:07;;;;;;;12.60;6.75;;;;;;;-1.48;85.35;100124.84;5075733;28;20037;-51
2020/12/31 04:04:33;;;;;;;16.65;7.70;;;;;;;-1.51;85.63;100125.44;5075460;28;20068;-55
2020/12/31 04:06:59;;;;;;;19.48;7.07;;;;;;;-1.49;85.25;100125.94;5073574;28;20033;-55
2020/12/31 04:09:26;;;;;;;10.27;6.82;;;;;;;-1.51;85.55;100122.72;5072837;28;20041;-54
2020/12/31 04:11:52;;;;;;;17.38;7.93;;;;;;;-1.55;85.43;100121.63;5074923;28;20120;-53
2020/12/31 04:14:21;;;;;;;13.45;6.55;;;;;;;-1.57;85.62;100121.13;5058003;28;20127;-52
2020/12/31 04:16:48;;;;;;;9.98;6.65;;;;;;;-1.58;85.71;100133.03;5075320;28;20044;-55
2020/12/31 04:19:14;;;;;;;15.98;7.25;;;;;;;-1.57;85.71;100129.25;5074397;28;20044;-54
2020/12/31 04:21:40;;;;;;;11.68;6.95;;;;;;;-1.56;85.45;100141.75;5074784;28;20067;-52
2020/12/31 04:24:07;;;;;;;11.73;6.43;;;;;;;-1.57;85.77;100129.25;5040894;28;20494;-55
2020/12/31 04:26:33;;;;;;;9.80;5.95;;;;;;;-1.57;85.59;100124.66;5074969;28;20048;-51
2020/12/31 04:28:59;;;;;;;13.95;7.35;;;;;;;-1.54;85.80;100117.84;5074462;28;20437;-51
2020/12/31 04:31:26;;;;;;;14.68;7.07;;;;;;;-1.54;85.76;100125.97;5074071;28;20087;-50
2020/12/31 04:33:52;;;;;;;12.68;6.95;;;;;;;-1.56;85.86;100120.81;5075667;28;20174;-54
2020/12/31 04:36:20;;;;;;;12.77;7.35;;;;;;;-1.55;85.95;100122.44;5074203;28;20455;-53
2020/12/31 04:38:47;;;;;;;15.90;7.35;;;;;;;-1.54;85.90;100118.66;5057258;28;20052;-54
2020/12/31 04:41:13;;;;;;;14.25;6.50;;;;;;;-1.51;86.15;100133.56;5074193;28;20040;-53
2020/12/31 04:43:39;;;;;;;11.57;7.47;;;;;;;-1.51;86.17;100120.78;5075729;28;20489;-50
2020/12/31 04:46:09;;;;;;;13.07;8.02;;;;;;;-1.49;86.10;100126.75;5074407;28;20058;-55
2020/12/31 04:48:40;;;;;;;13.65;7.78;;;;;;;-1.49;86.28;100120.53;5053021;28;20068;-54
2020/12/31 04:51:10;;;;;;;15.75;7.15;;;;;;;-1.51;86.37;100118.06;5061341;28;20048;-50
2020/12/31 04:53:38;;;;;;;10.38;6.93;;;;;;;-1.48;86.10;100119.41;5067365;28;20126;-55
2020/12/31 04:56:06;;;;;;;14.35;7.00;;;;;;;-1.47;86.29;100104.75;5066306;28;20055;-55
2020/12/31 04:58:34;;;;;;;9.82;6.30;;;;;;;-1.47;86.21;100102.84;5055954;28;20045;-52
2020/12/31 05:01:02;;;;;;;20.85;7.13;;;;;;;-1.46;86.18;100109.09;5073850;28;20044;-52
2020/12/31 05:03:29;;;;;;;13.27;6.85;;;;;;;-1.45;85.96;100110.72;5073981;28;20037;-52
2020/12/31 05:05:56;;;;;;;11.65;6.40;;;;;;;-1.47;86.14;100100.16;5074880;28;20044;-54
2020/12/31 05:08:29;;;;;;;10.75;6.90;;;;;;;-1.44;86.16;100101.47;5074300;28;20033;-50
2020/12/31 05:10:56;;;;;;;9.13;5.78;;;;;;;-1.45;86.21;100106.09;5073654;28;20054;-56
2020/12/31 05:13:25;;;;;;;12.30;6.60;;;;;;;-1.42;85.94;100104.72;5073961;28;20033;-54
2020/12/31 05:15:51;;;;;;;10.20;5.47;;;;;;;-1.42;86.28;100096.56;5074341;28;20040;-53
2020/12/31 05:18:25;;;;;;;7.88;5.95;;;;;;;-1.42;86.38;100104.72;5073622;28;20094;-50
2020/12/31 05:20:56;;;;;;;21.52;5.75;;;;;;;-1.41;86.53;100100.94;5074525;28;20044;-54
2020/12/31 05:23:27;;;;;;;8.50;5.00;;;;;;;-1.39;86.32;100099.53;5055991;28;20041;-53
2020/12/31 05:25:55;;;;;;;13.20;4.80;;;;;;;-1.41;86.29;100101.75;5073023;28;20090;-50
2020/12/31 05:28:31;;;;;;;8.30;5.00;;;;;;;-1.41;86.78;100106.34;5073314;28;20816;-53
2020/12/31 05:31:17;;;;;;;14.05;5.32;;;;;;;-1.46;86.61;100101.78;5072513;28;20044;-50
2020/12/31 05:33:44;;;;;;;7.25;4.55;;;;;;;-1.47;86.41;100099.31;5059946;28;20565;-53
2020/12/31 05:36:22;;;;;;;31.40;5.18;;;;;;;-1.47;86.51;100102.03;5068146;28;20075;-56
2020/12/31 05:38:55;;;;;;;11.23;3.95;;;;;;;-1.49;86.47;100093.38;5073916;28;20048;-49
2020/12/31 05:41:22;;;;;;;6.57;4.25;;;;;;;-1.48;86.42;100084.94;5054743;28;20088;-50
2020/12/31 05:44:06;;;;;;;9.00;4.07;;;;;;;-1.49;86.30;100088.75;5073605;28;20068;-49
2020/12/31 05:46:41;;;;;;;7.93;4.03;;;;;;;-1.48;86.43;100095.78;5062105;28;20473;-51
2020/12/31 05:49:09;;;;;;;6.95;4.25;;;;;;;-1.48;86.22;100094.97;5072900;28;20561;-54
2020/12/31 05:51:40;;;;;;;10.52;4.15;;;;;;;-1.50;86.23;100089.03;5072634;28;20047;-51
2020/12/31 05:54:09;;;;;;;5.70;4.22;;;;;;;-1.50;86.35;100089.03;5055860;28;20494;-55
2020/12/31 05:56:40;;;;;;;7.47;3.78;;;;;;;-1.52;86.51;100088.50;5071284;28;20040;-53
2020/12/31 05:59:23;;;;;;;;;;;;;;;-1.55;86.79;100095.31;5074309;28;20036;-55
2020/12/31 06:02:03;;;;;;;10.80;3.85;;;;;;;-1.55;86.72;100087.16;5067702;28;19921;-52
2020/12/31 06:04:46;;;;;;;12.98;4.40;;;;;;;-1.56;86.80;100092.88;5073223;28;20040;-56
2020/12/31 06:07:31;;;;;;;6.05;3.55;;;;;;;-1.55;86.57;100084.44;5072230;28;20547;-55
2020/12/31 06:10:04;;;;;;;7.82;4.03;;;;;;;-1.54;86.34;100087.97;5072800;28;20124;-55
2020/12/31 06:12:41;;;;;;;5.72;2.92;;;;;;;-1.55;86.60;100087.16;5072372;28;20052;-53
2020/12/31 06:15:08;;;;;;;8.90;3.90;;;;;;;-1.51;86.41;100090.13;5073153;28;20090;-52
2020/12/31 06:17:46;;;;;;;8.40;3.78;;;;;;;-1.51;86.22;100090.13;5072511;28;20044;-54
2020/12/31 06:20:15;;;;;;;5.38;3.10;;;;;;;-1.51;86.38;100079.28;5053656;28;20121;-54
2020/12/31 06:23:06;;;;;;;5.63;3.17;;;;;;;-1.53;86.41;100084.16;5067926;28;20036;-50
2020/12/31 06:25:43;;;;;;;6.32;2.92;;;;;;;-1.52;86.38;100072.22;5043036;28;20042;-53
2020/12/31 06:28:18;;;;;;;7.65;3.70;;;;;;;-1.53;86.34;100081.44;5072201;28;20086;-52
2020/12/31 06:30:54;;;;;;;6.20;3.28;;;;;;;-1.53;86.07;100076.00;5072799;28;20032;-52
2020/12/31 06:33:43;;;;;;;5.88;3.03;;;;;;;-1.55;86.40;100078.22;5055441;28;20055;-52
2020/12/31 06:36:10;;;;;;;5.78;2.85;;;;;;;-1.55;86.12;100072.78;5072028;28;20101;-52
2020/12/31 06:38:42;;;;;;;5.63;3.58;;;;;;;-1.58;86.28;100078.78;5053962;28;20086;-51
2020/12/31 06:41:30;;;;;;;7.00;3.53;;;;;;;-1.60;86.17;100075.53;5071480;28;20112;-52
2020/12/31 06:44:11;;;;;;;4.90;3.25;;;;;;;-1.61;86.33;100080.16;5072566;28;20118;-49
2020/12/31 06:46:39;;;;;;;6.30;3.60;;;;;;;-1.62;86.34;100088.56;5072184;28;20036;-50
2020/12/31 06:49:06;;;;;;;8.27;3.42;;;;;;;-1.62;86.35;100078.53;5071939;28;20052;-54
2020/12/31 06:51:32;;;;;;;8.75;4.20;;;;;;;-1.62;86.36;100069.59;5071079;28;20494;-51
2020/12/31 06:54:01;;;;;;;11.15;3.45;;;;;;;-1.62;86.48;100066.88;5072477;28;20040;-54
2020/12/31 06:56:46;;;;;;;10.10;3.05;;;;;;;-1.62;86.55;100075.00;5072377;28;20041;-53
2020/12/31 06:59:32;;;;;;;3.53;2.78;;;;;;;-1.63;86.63;100071.47;5072372;28;20037;-52
2020/12/31 07:02:03;;;;;;;4.57;2.85;;;;;;;-1.61;86.60;100074.72;5072126;28;20040;-49
2020/12/31 07:04:33;;;;;;;5.28;3.00;;;;;;;-1.60;86.43;100078.25;5073327;28;20043;-49
2020/12/31 07:07:21;;;;;;;7.18;3.72;;;;;;;-1.59;86.55;100071.75;5072210;28;20051;-50
2020/12/31 07:09:56;;;;;;;10.50;3.78;;;;;;;-1.61;86.47;100073.91;5071856;28;20111;-55
2020/12/31 07:12:34;;;;;;;3.33;2.58;;;;;;;-1.58;86.72;100089.63;5057799;28;20123;-49
2020/12/31 07:15:04;;;;;;;7.13;2.97;;;;;;;-1.56;86.62;100079.31;5072524;28;20123;-50
2020/12/31 07:17:36;;;;;;;4.45;2.58;;;;;;;-1.53;86.86;100095.00;5054521;28;20045;-50
2020/12/31 07:20:07;;;;;;;4.72;1.67;;;;;;;-1.50;86.96;100089.84;5050887;28;20037;-51
2020/12/31 07:22:44;;;;;;;4.00;2.42;;;;;;;-1.45;87.06;100091.72;5053793;28;20558;-55
2020/12/31 07:25:12;;;;;;;11.43;3.72;;;;;;;-1.39;87.07;100090.59;5058331;28;20060;-51
2020/12/31 07:27:41;;;;;;;4.45;3.03;;;;;;;-1.36;86.81;100098.97;5072252;28;20037;-51
2020/12/31 07:30:08;;;;;;;5.22;2.70;;;;;;;-1.34;87.04;100109.56;5071973;28;20044;-52
2020/12/31 07:32:58;;;;;;;4.82;2.92;;;;;;;-1.33;87.11;100103.84;5072296;28;20041;-49
2020/12/31 07:35:49;;;;;;;2.63;2.05;;;;;;;-1.28;87.32;100101.09;5044367;28;20427;-54
2020/12/31 07:38:19;;;;;;;6.65;2.78;;;;;;;-1.21;87.16;100098.06;5040452;28;20501;-52
2020/12/31 07:40:51;;;;;;;7.75;2.75;;;;;;;-1.17;87.06;100096.41;5071044;28;20397;-53
2020/12/31 07:43:20;;;;;;;7.93;2.83;;;;;;;-1.14;87.30;100100.47;5054205;28;20086;-54
2020/12/31 07:45:50;;;;;;;5.00;3.50;;;;;;;-1.11;86.99;100100.69;5071753;28;20368;-52
2020/12/31 07:48:17;;;;;;;4.80;3.88;;;;;;;-1.06;86.98;100103.34;5054611;28;20036;-54
2020/12/31 07:50:44;;;;;;;7.93;3.55;;;;;;;-1.01;87.13;100102.53;5071830;28;20066;-54
2020/12/31 07:53:12;;;;;;;7.22;3.72;;;;;;;-1.01;87.19;100095.19;5072305;28;20045;-54
2020/12/31 07:55:47;;;;;;;5.90;3.28;;;;;;;-1.01;87.42;100094.38;5071376;28;20064;-50
2020/12/31 07:58:17;;;;;;;5.40;2.97;;;;;;;-0.99;87.07;100097.59;5057768;28;20425;-53
2020/12/31 08:00:43;;;;;;;5.38;2.83;;;;;;;-0.97;87.22;100098.94;5075413;28;20060;-51
2020/12/31 08:03:12;;;;;;;7.30;3.47;;;;;;;-0.96;86.75;100095.13;5075360;28;20045;-49
2020/12/31 08:05:39;;;;;;;6.82;3.47;;;;;;;-0.98;87.30;100110.88;5074990;28;20037;-50
2020/12/31 08:08:05;;;;;;;10.68;2.97;;;;;;;-0.99;86.82;100108.47;5057737;28;20045;-52
2020/12/31 08:10:37;;;;;;;4.45;2.20;;;;;;;-1.02;87.45;100109.84;5074557;28;20094;-52
2020/12/31 08:13:05;;;;;;;5.82;2.78;;;;;;;-1.01;86.92;100116.91;5074727;28;20044;-53
2020/12/31 08:15:32;;;;;;;4.28;2.72;;;;;;;-0.99;86.87;100111.19;5074935;28;20490;-53
2020/12/31 08:18:03;;;;;;;8.70;3.38;;;;;;;-0.99;87.22;100108.47;5074863;28;20505;-52
2020/12/31 08:20:37;;;;;;;8.95;2.95;;;;;;;-0.98;87.38;100108.19;5075563;28;20478;-51
2020/12/31 08:23:16;;;;;;;6.78;2.67;;;;;;;-0.96;87.38;100106.00;5075282;28;20032;-51
2020/12/31 08:25:44;;;;;;;4.57;3.38;;;;;;;-0.95;87.48;100107.59;5074291;28;20037;-54
2020/12/31 08:28:16;;;;;;;7.72;4.50;;;;;;;-0.93;87.31;100102.72;5075613;28;20040;-54
2020/12/31 08:30:42;;;;;;;12.52;3.13;;;;;;;-0.91;87.49;100094.28;5054915;28;20497;-51
2020/12/31 08:33:10;;;;;;;8.25;3.70;;;;;;;-0.88;87.38;100105.38;5073137;28;20116;-54
2020/12/31 08:35:40;;;;;;;6.35;3.47;;;;;;;-0.89;87.32;100089.34;5073648;28;20037;-53
2020/12/31 08:38:20;;;;;;;6.97;2.63;;;;;;;-0.92;87.46;100090.75;5057863;28;20106;-51
2020/12/31 08:40:57;;;;;;;4.43;2.90;;;;;;;-0.93;87.50;100089.13;5055056;28;20112;-49
2020/12/31 08:43:30;;;;;;;9.48;4.25;;;;;;;-0.97;87.68;100088.06;5066127;28;20390;-52
2020/12/31 08:46:00;;;;;;;4.00;2.70;;;;;;;-0.95;87.63;100083.16;5075130;28;20060;-55
2020/12/31 08:48:34;;;;;;;9.02;3.75;;;;;;;-0.97;87.63;100085.34;5074247;28;20107;-51
2020/12/31 08:51:15;;;;;;;4.63;3.05;;;;;;;-0.97;87.67;100082.63;5074438;28;20041;-49
2020/12/31 08:53:59;;;;;;;4.78;3.03;;;;;;;-0.96;87.66;100087.00;5073668;28;20525;-51
2020/12/31 08:56:29;;;;;;;5.53;3.25;;;;;;;-0.95;87.58;100091.31;5036003;28;20052;-53
2020/12/31 08:59:09;;;;;;;8.32;3.25;;;;;;;-0.93;87.57;100089.13;5054777;28;20029;-52
2020/12/31 09:01:36;;;;;;;6.05;3.85;;;;;;;-0.92;87.60;100090.75;5071710;28;20052;-53
2020/12/31 09:04:09;;;;;;;8.38;2.88;;;;;;;-0.91;87.90;100095.09;5074467;28;20072;-50
2020/12/31 09:06:42;;;;;;;6.78;3.03;;;;;;;-0.88;87.63;100089.09;5056352;28;20430;-50
2020/12/31 09:09:18;;;;;;;4.35;3.00;;;;;;;-0.86;87.82;100091.50;5074405;28;20036;-50
2020/12/31 09:11:55;;;;;;;9.55;3.20;;;;;;;-0.83;87.50;100102.63;5072246;28;20037;-49
2020/12/31 09:14:31;;;;;;;4.28;3.40;;;;;;;-0.79;87.96;100103.66;5073869;28;20079;-55
2020/12/31 09:17:24;;;;;;;6.82;2.70;;;;;;;-0.73;87.93;100110.69;5072661;28;20036;-50
2020/12/31 09:19:54;;;;;;;4.03;3.70;;;;;;;-0.67;87.72;100114.97;5053504;28;20060;-49
2020/12/31 09:22:24;;;;;;;9.68;3.63;;;;;;;-0.61;87.34;100119.25;5063853;28;20508;-50
2020/12/31 09:24:52;;;;;;;6.50;3.95;;;;;;;-0.53;87.72;100122.47;5074313;28;20051;-50
2020/12/31 09:27:23;;;;;;;8.38;4.18;;;;;;;-0.49;87.81;100112.63;5074011;28;20090;-50
2020/12/31 09:29:57;;;;;;;5.25;3.22;;;;;;;-0.46;87.89;100118.31;5073916;28;20505;-49
2020/12/31 09:32:23;;;;;;;6.20;3.17;;;;;;;-0.42;87.76;100118.50;5074473;28;20093;-50
2020/12/31 09:34:50;;;;;;;6.35;3.70;;;;;;;-0.36;87.96;100114.66;5056715;28;20036;-49
2020/12/31 09:37:16;;;;;;;6.40;3.45;;;;;;;-0.32;87.76;100115.72;5056282;28;20044;-51
2020/12/31 09:39:46;;;;;;;3.45;2.78;;;;;;;-0.30;87.94;100118.94;5065603;28;20040;-51
2020/12/31 09:42:12;;;;;;;6.55;3.22;;;;;;;-0.27;87.76;100121.09;5072236;28;20148;-54
2020/12/31 09:44:39;;;;;;;5.15;2.78;;;;;;;-0.25;87.52;100132.47;5073300;28;20098;-52
2020/12/31 09:47:07;;;;;;;6.80;3.58;;;;;;;-0.23;87.85;100139.25;5068133;28;20044;-55
2020/12/31 09:49:34;;;;;;;8.82;3.15;;;;;;;-0.21;87.81;100125.34;5068048;28;20434;-55
2020/12/31 09:52:00;;;;;;;6.65;3.63;;;;;;;-0.20;87.83;100132.44;5063888;28;20044;-56
2020/12/31 09:54:28;;;;;;;7.18;3.40;;;;;;;-0.17;87.77;100148.19;5071734;28;20757;-54
2020/12/31 09:56:54;;;;;;;5.43;3.08;;;;;;;-0.14;88.15;100147.59;5071687;28;20131;-55
2020/12/31 09:59:20;;;;;;;12.13;3.90;;;;;;;-0.08;87.98;100146.44;5071423;28;20135;-51
2020/12/31 10:01:47;;;;;;;5.85;2.95;;;;;;;-0.02;87.80;100148.81;5070990;28;20060;-55
2020/12/31 10:04:14;;;;;;;6.55;2.65;;;;;;;-0.01;88.14;100136.84;5072221;28;20449;-56
2020/12/31 10:06:45;;;;;;;9.52;2.80;;;;;;;0.02;88.20;100132.72;5069139;28;20074;-55
2020/12/31 10:09:14;;;;;;;7.70;4.22;;;;;;;0.07;88.18;100132.66;5045026;28;20044;-51
2020/12/31 10:11:53;;;;;;;6.18;3.53;;;;;;;0.06;87.78;100147.34;5034617;28;20041;-59
2020/12/31 10:14:21;;;;;;;6.55;3.30;;;;;;;0.03;87.55;100156.09;5052187;28;20039;-54
2020/12/31 10:16:51;;;;;;;6.20;3.45;;;;;;;0.04;87.67;100160.44;5065740;28;20048;-54
2020/12/31 10:19:20;;;;;;;6.78;3.78;;;;;;;0.08;87.85;100168.84;5070904;28;20486;-53
2020/12/31 10:21:47;;;;;;;8.77;3.53;;;;;;;0.14;87.89;100163.03;5070777;28;20521;-55
2020/12/31 10:24:16;;;;;;;4.13;2.30;;;;;;;0.24;87.92;100160.19;5071124;28;20041;-55
2020/12/31 10:26:44;;;;;;;4.10;2.50;;;;;;;0.33;87.74;100161.19;5071486;28;20050;-52
2020/12/31 10:29:12;;;;;;;3.83;2.72;;;;;;;0.38;87.73;100158.38;5070215;28;20043;-54
2020/12/31 10:31:41;;;;;;;3.60;2.35;;;;;;;0.43;87.99;100161.03;5070868;28;20040;-55
2020/12/31 10:34:16;;;;;;;3.78;2.80;;;;;;;0.47;87.65;100164.81;5053385;28;20036;-52
2020/12/31 10:36:42;;;;;;;4.10;2.67;;;;;;;0.48;87.69;100155.53;5068586;28;20578;-52
2020/12/31 10:39:09;;;;;;;6.63;2.70;;;;;;;0.50;87.59;100163.41;5069763;28;20045;-58
2020/12/31 10:41:35;;;;;;;8.48;4.28;;;;;;;0.49;87.56;100161.78;5066197;28;20123;-54
2020/12/31 10:44:01;;;;;;;3.13;2.53;;;;;;;0.46;87.50;100152.28;5069275;28;20072;-50
2020/12/31 10:46:28;;;;;;;10.40;5.03;;;;;;;0.42;87.48;100156.72;5068323;28;20071;-53
2020/12/31 10:48:54;;;;;;;16.42;5.20;;;;;;;0.39;87.51;100162.75;5067022;28;20110;-58
2020/12/31 10:51:20;;;;;;;11.32;3.63;;;;;;;0.35;87.40;100161.69;5068933;28;20083;-54
2020/12/31 10:53:46;;;;;;;9.50;3.50;;;;;;;0.33;87.37;100163.09;5069828;28;20064;-56
2020/12/31 10:56:19;;;;;;;6.65;3.83;;;;;;;0.32;87.39;100161.47;5071941;28;20048;-55
2020/12/31 10:58:46;;;;;;;8.40;3.55;;;;;;;0.33;87.35;100169.34;5069324;28;20124;-54
2020/12/31 11:01:15;;;;;;;6.43;3.70;;;;;;;0.29;87.32;100159.34;5037135;28;20040;-53
2020/12/31 11:03:43;;;;;;;6.72;3.72;;;;;;;0.29;87.50;100162.84;5071055;28;20119;-52
2020/12/31 11:06:26;;;;;;;5.55;3.72;;;;;;;0.28;87.22;100163.97;5069554;28;20040;-53
2020/12/31 11:08:54;;;;;;;9.35;5.18;;;;;;;0.29;87.34;100172.94;5053484;28;20513;-50
2020/12/31 11:11:31;;;;;;;7.85;4.57;;;;;;;0.28;87.08;100165.88;5051200;28;20049;-49
2020/12/31 11:13:57;;;;;;;8.63;4.45;;;;;;;0.30;87.39;100175.38;5063312;28;20554;-56
2020/12/31 11:16:23;;;;;;;5.53;3.38;;;;;;;0.33;87.26;100176.69;5070334;28;20482;-53
2020/12/31 11:18:50;;;;;;;4.80;3.10;;;;;;;0.38;87.52;100174.72;5067389;28;20079;-56
2020/12/31 11:21:19;;;;;;;6.50;3.00;;;;;;;0.45;87.77;100172.44;5069750;28;20079;-54
2020/12/31 11:23:45;;;;;;;6.60;2.80;;;;;;;0.54;87.67;100173.44;5068179;28;20056;-53
2020/12/31 11:26:14;;;;;;;4.55;2.92;;;;;;;0.61;87.85;100168.41;5050514;28;20083;-53
2020/12/31 11:28:41;;;;;;;4.93;2.70;;;;;;;0.70;87.70;100173.19;5068200;28;20120;-50
2020/12/31 11:31:09;;;;;;;3.83;2.30;;;;;;;0.79;87.53;100174.19;5064784;28;20076;-54
2020/12/31 11:33:40;;;;;;;4.95;2.15;;;;;;;0.91;87.37;100179.97;5073329;28;20138;-53